sensor_id;sensor_type;location;lat;lon;timestamp;P1;durP1;ratioP1;P2;durP2;ratioP2
40515;SDS011;26216;53.724;9.898;2023-10-09T00:00:05;1.80;;;1.10;;
40515;SDS011;26216;53.724;9.898;2023-10-09T00:02:50;2.42;;;1.00;;
40515;SDS011;26216;53.724;9.898;2023-10-09T00:05:16;1.70;;;1.20;;
40515;SDS011;26216;53.724;9.898;2023-10-09T00:07:50;1.63;;;1.00;;
40515;SDS011;26216;53.724;9.898;2023-10-09T00:10:21;2.05;;;1.10;;
40515;SDS011;26216;53.724;9.898;2023-10-09T00:12:47;2.20;;;1.08;;
40515;SDS011;26216;53.724;9.898;2023-10-09T00:15:14;2.45;;;1.10;;
40515;SDS011;26216;53.724;9.898;2023-10-09T00:17:43;1.70;;;0.95;;
40515;SDS011;26216;53.724;9.898;2023-10-09T00:20:12;1.92;;;1.10;;
40515;SDS011;26216;53.724;9.898;2023-10-09T00:22:43;2.40;;;1.50;;
40515;SDS011;26216;53.724;9.898;2023-10-09T00:25:11;1.63;;;1.05;;
40515;SDS011;26216;53.724;9.898;2023-10-09T00:27:38;2.08;;;1.00;;
40515;SDS011;26216;53.724;9.898;2023-10-09T00:30:11;1.77;;;1.10;;
40515;SDS011;26216;53.724;9.898;2023-10-09T00:32:40;2.15;;;1.00;;
40515;SDS011;26216;53.724;9.898;2023-10-09T00:35:09;2.55;;;1.17;;
40515;SDS011;26216;53.724;9.898;2023-10-09T00:37:53;3.53;;;1.00;;
40515;SDS011;26216;53.724;9.898;2023-10-09T00:40:31;1.92;;;0.98;;
40515;SDS011;26216;53.724;9.898;2023-10-09T00:42:59;1.92;;;1.00;;
40515;SDS011;26216;53.724;9.898;2023-10-09T00:45:31;1.95;;;0.93;;
40515;SDS011;26216;53.724;9.898;2023-10-09T00:47:58;2.58;;;1.25;;
40515;SDS011;26216;53.724;9.898;2023-10-09T00:50:27;1.67;;;0.93;;
40515;SDS011;26216;53.724;9.898;2023-10-09T00:53:00;1.92;;;1.15;;
40515;SDS011;26216;53.724;9.898;2023-10-09T00:55:36;2.50;;;1.20;;
40515;SDS011;26216;53.724;9.898;2023-10-09T00:58:08;2.28;;;0.88;;
40515;SDS011;26216;53.724;9.898;2023-10-09T01:00:39;1.52;;;1.10;;
40515;SDS011;26216;53.724;9.898;2023-10-09T01:03:09;3.03;;;1.20;;
40515;SDS011;26216;53.724;9.898;2023-10-09T01:05:48;1.35;;;0.95;;
40515;SDS011;26216;53.724;9.898;2023-10-09T01:08:41;1.23;;;0.80;;
40515;SDS011;26216;53.724;9.898;2023-10-09T01:11:10;1.17;;;0.73;;
40515;SDS011;26216;53.724;9.898;2023-10-09T01:13:47;1.50;;;0.75;;
40515;SDS011;26216;53.724;9.898;2023-10-09T01:16:14;2.80;;;1.13;;
40515;SDS011;26216;53.724;9.898;2023-10-09T01:18:44;2.00;;;1.02;;
40515;SDS011;26216;53.724;9.898;2023-10-09T01:21:12;1.45;;;0.82;;
40515;SDS011;26216;53.724;9.898;2023-10-09T01:23:43;1.98;;;1.00;;
40515;SDS011;26216;53.724;9.898;2023-10-09T01:28:59;1.40;;;0.70;;
40515;SDS011;26216;53.724;9.898;2023-10-09T01:31:26;2.58;;;1.00;;
40515;SDS011;26216;53.724;9.898;2023-10-09T01:33:53;2.00;;;0.98;;
40515;SDS011;26216;53.724;9.898;2023-10-09T01:36:25;1.73;;;1.10;;
40515;SDS011;26216;53.724;9.898;2023-10-09T01:38:58;2.13;;;1.00;;
40515;SDS011;26216;53.724;9.898;2023-10-09T01:41:25;2.03;;;1.10;;
40515;SDS011;26216;53.724;9.898;2023-10-09T01:43:51;1.60;;;0.88;;
40515;SDS011;26216;53.724;9.898;2023-10-09T01:46:22;1.73;;;0.90;;
40515;SDS011;26216;53.724;9.898;2023-10-09T01:48:48;1.33;;;0.82;;
40515;SDS011;26216;53.724;9.898;2023-10-09T01:51:14;2.45;;;1.13;;
40515;SDS011;26216;53.724;9.898;2023-10-09T01:53:46;1.85;;;1.20;;
40515;SDS011;26216;53.724;9.898;2023-10-09T01:56:21;1.60;;;0.75;;
40515;SDS011;26216;53.724;9.898;2023-10-09T01:58:47;2.00;;;0.90;;
40515;SDS011;26216;53.724;9.898;2023-10-09T02:01:15;1.65;;;0.90;;
40515;SDS011;26216;53.724;9.898;2023-10-09T02:03:41;1.25;;;0.80;;
40515;SDS011;26216;53.724;9.898;2023-10-09T02:06:08;1.33;;;0.80;;
40515;SDS011;26216;53.724;9.898;2023-10-09T02:08:52;2.38;;;0.95;;
40515;SDS011;26216;53.724;9.898;2023-10-09T02:11:18;3.08;;;1.13;;
40515;SDS011;26216;53.724;9.898;2023-10-09T02:13:52;2.30;;;1.35;;
40515;SDS011;26216;53.724;9.898;2023-10-09T02:16:26;1.35;;;0.80;;
40515;SDS011;26216;53.724;9.898;2023-10-09T02:18:54;2.53;;;1.02;;
40515;SDS011;26216;53.724;9.898;2023-10-09T02:21:33;2.83;;;1.00;;
40515;SDS011;26216;53.724;9.898;2023-10-09T02:24:02;2.03;;;1.00;;
40515;SDS011;26216;53.724;9.898;2023-10-09T02:26:34;2.92;;;0.88;;
40515;SDS011;26216;53.724;9.898;2023-10-09T02:29:03;2.40;;;1.35;;
40515;SDS011;26216;53.724;9.898;2023-10-09T02:31:38;2.20;;;0.90;;
40515;SDS011;26216;53.724;9.898;2023-10-09T02:34:12;1.30;;;0.73;;
40515;SDS011;26216;53.724;9.898;2023-10-09T02:36:40;1.77;;;1.00;;
40515;SDS011;26216;53.724;9.898;2023-10-09T02:39:14;2.08;;;1.02;;
40515;SDS011;26216;53.724;9.898;2023-10-09T02:41:52;1.70;;;1.10;;
40515;SDS011;26216;53.724;9.898;2023-10-09T02:44:23;1.92;;;0.93;;
40515;SDS011;26216;53.724;9.898;2023-10-09T02:46:55;1.55;;;0.80;;
40515;SDS011;26216;53.724;9.898;2023-10-09T02:49:23;2.38;;;1.30;;
40515;SDS011;26216;53.724;9.898;2023-10-09T02:51:49;2.00;;;0.80;;
40515;SDS011;26216;53.724;9.898;2023-10-09T02:54:18;2.10;;;0.90;;
40515;SDS011;26216;53.724;9.898;2023-10-09T02:56:47;2.47;;;1.00;;
40515;SDS011;26216;53.724;9.898;2023-10-09T02:59:21;1.77;;;0.85;;
40515;SDS011;26216;53.724;9.898;2023-10-09T03:01:48;1.65;;;0.90;;
40515;SDS011;26216;53.724;9.898;2023-10-09T03:04:14;1.50;;;0.80;;
40515;SDS011;26216;53.724;9.898;2023-10-09T03:06:41;2.28;;;1.00;;
40515;SDS011;26216;53.724;9.898;2023-10-09T03:09:19;1.92;;;1.00;;
40515;SDS011;26216;53.724;9.898;2023-10-09T03:11:52;2.10;;;0.95;;
40515;SDS011;26216;53.724;9.898;2023-10-09T03:14:20;2.28;;;1.30;;
40515;SDS011;26216;53.724;9.898;2023-10-09T03:16:47;1.65;;;0.90;;
40515;SDS011;26216;53.724;9.898;2023-10-09T03:19:15;1.48;;;0.90;;
40515;SDS011;26216;53.724;9.898;2023-10-09T03:21:42;1.98;;;1.17;;
40515;SDS011;26216;53.724;9.898;2023-10-09T03:24:07;2.83;;;1.17;;
40515;SDS011;26216;53.724;9.898;2023-10-09T03:26:36;5.10;;;1.23;;
40515;SDS011;26216;53.724;9.898;2023-10-09T03:29:02;2.30;;;1.10;;
40515;SDS011;26216;53.724;9.898;2023-10-09T03:31:34;1.92;;;1.00;;
40515;SDS011;26216;53.724;9.898;2023-10-09T03:34:02;3.88;;;1.20;;
40515;SDS011;26216;53.724;9.898;2023-10-09T03:36:28;2.15;;;1.20;;
40515;SDS011;26216;53.724;9.898;2023-10-09T03:38:56;1.92;;;1.02;;
40515;SDS011;26216;53.724;9.898;2023-10-09T03:41:23;2.75;;;1.10;;
40515;SDS011;26216;53.724;9.898;2023-10-09T03:43:54;2.15;;;1.10;;
40515;SDS011;26216;53.724;9.898;2023-10-09T03:46:20;2.25;;;1.00;;
40515;SDS011;26216;53.724;9.898;2023-10-09T03:48:51;2.63;;;1.10;;
40515;SDS011;26216;53.724;9.898;2023-10-09T03:51:17;1.42;;;0.82;;
40515;SDS011;26216;53.724;9.898;2023-10-09T03:53:50;4.38;;;1.10;;
40515;SDS011;26216;53.724;9.898;2023-10-09T03:56:19;2.00;;;1.00;;
40515;SDS011;26216;53.724;9.898;2023-10-09T03:58:47;2.10;;;1.13;;
40515;SDS011;26216;53.724;9.898;2023-10-09T04:01:19;2.22;;;1.10;;
40515;SDS011;26216;53.724;9.898;2023-10-09T04:03:58;2.08;;;1.10;;
40515;SDS011;26216;53.724;9.898;2023-10-09T04:06:28;2.30;;;1.00;;
40515;SDS011;26216;53.724;9.898;2023-10-09T04:09:01;2.25;;;1.08;;
40515;SDS011;26216;53.724;9.898;2023-10-09T04:11:43;1.52;;;0.90;;
40515;SDS011;26216;53.724;9.898;2023-10-09T04:14:14;2.45;;;1.02;;
40515;SDS011;26216;53.724;9.898;2023-10-09T04:16:58;2.58;;;1.15;;
40515;SDS011;26216;53.724;9.898;2023-10-09T04:19:50;1.52;;;0.90;;
40515;SDS011;26216;53.724;9.898;2023-10-09T04:22:38;2.67;;;1.02;;
40515;SDS011;26216;53.724;9.898;2023-10-09T04:25:07;2.13;;;0.90;;
40515;SDS011;26216;53.724;9.898;2023-10-09T04:27:42;4.13;;;1.20;;
40515;SDS011;26216;53.724;9.898;2023-10-09T04:30:10;1.70;;;0.95;;
40515;SDS011;26216;53.724;9.898;2023-10-09T04:32:43;2.58;;;1.08;;
40515;SDS011;26216;53.724;9.898;2023-10-09T04:35:10;2.63;;;1.35;;
40515;SDS011;26216;53.724;9.898;2023-10-09T04:37:49;2.25;;;1.30;;
40515;SDS011;26216;53.724;9.898;2023-10-09T04:40:25;2.30;;;1.02;;
40515;SDS011;26216;53.724;9.898;2023-10-09T04:43:13;2.15;;;0.98;;
40515;SDS011;26216;53.724;9.898;2023-10-09T04:45:46;1.80;;;0.88;;
40515;SDS011;26216;53.724;9.898;2023-10-09T04:48:35;2.72;;;1.10;;
40515;SDS011;26216;53.724;9.898;2023-10-09T04:51:06;3.10;;;1.27;;
40515;SDS011;26216;53.724;9.898;2023-10-09T04:53:58;3.65;;;1.13;;
40515;SDS011;26216;53.724;9.898;2023-10-09T04:56:40;2.08;;;1.05;;
40515;SDS011;26216;53.724;9.898;2023-10-09T04:59:18;2.20;;;0.90;;
40515;SDS011;26216;53.724;9.898;2023-10-09T05:01:44;2.22;;;1.00;;
40515;SDS011;26216;53.724;9.898;2023-10-09T05:04:22;2.80;;;0.90;;
40515;SDS011;26216;53.724;9.898;2023-10-09T05:07:04;2.00;;;0.82;;
40515;SDS011;26216;53.724;9.898;2023-10-09T05:09:49;1.83;;;1.00;;
40515;SDS011;26216;53.724;9.898;2023-10-09T05:12:22;2.60;;;0.88;;
40515;SDS011;26216;53.724;9.898;2023-10-09T05:14:52;3.08;;;1.17;;
40515;SDS011;26216;53.724;9.898;2023-10-09T05:17:38;1.92;;;0.80;;
40515;SDS011;26216;53.724;9.898;2023-10-09T05:20:05;2.00;;;1.10;;
40515;SDS011;26216;53.724;9.898;2023-10-09T05:22:50;2.05;;;1.10;;
40515;SDS011;26216;53.724;9.898;2023-10-09T05:25:25;1.70;;;0.90;;
40515;SDS011;26216;53.724;9.898;2023-10-09T05:28:10;2.63;;;1.25;;
40515;SDS011;26216;53.724;9.898;2023-10-09T05:30:56;2.22;;;1.00;;
40515;SDS011;26216;53.724;9.898;2023-10-09T05:33:33;2.58;;;1.00;;
40515;SDS011;26216;53.724;9.898;2023-10-09T05:36:05;2.72;;;1.25;;
40515;SDS011;26216;53.724;9.898;2023-10-09T05:38:56;3.35;;;1.27;;
40515;SDS011;26216;53.724;9.898;2023-10-09T05:41:45;2.13;;;1.00;;
40515;SDS011;26216;53.724;9.898;2023-10-09T05:44:17;2.20;;;1.27;;
40515;SDS011;26216;53.724;9.898;2023-10-09T05:47:02;2.10;;;1.00;;
40515;SDS011;26216;53.724;9.898;2023-10-09T05:49:47;2.00;;;1.13;;
40515;SDS011;26216;53.724;9.898;2023-10-09T05:52:23;1.75;;;0.90;;
40515;SDS011;26216;53.724;9.898;2023-10-09T05:55:18;2.40;;;1.10;;
40515;SDS011;26216;53.724;9.898;2023-10-09T05:57:52;2.38;;;1.00;;
40515;SDS011;26216;53.724;9.898;2023-10-09T06:00:40;2.22;;;1.13;;
40515;SDS011;26216;53.724;9.898;2023-10-09T06:03:24;3.47;;;1.30;;
40515;SDS011;26216;53.724;9.898;2023-10-09T06:05:54;2.45;;;1.05;;
40515;SDS011;26216;53.724;9.898;2023-10-09T06:08:21;2.83;;;1.17;;
40515;SDS011;26216;53.724;9.898;2023-10-09T06:11:13;2.40;;;1.10;;
40515;SDS011;26216;53.724;9.898;2023-10-09T06:13:58;2.30;;;1.20;;
40515;SDS011;26216;53.724;9.898;2023-10-09T06:16:32;2.70;;;1.23;;
40515;SDS011;26216;53.724;9.898;2023-10-09T06:19:09;1.42;;;0.80;;
40515;SDS011;26216;53.724;9.898;2023-10-09T06:21:45;2.38;;;1.30;;
40515;SDS011;26216;53.724;9.898;2023-10-09T06:24:21;4.43;;;1.40;;
40515;SDS011;26216;53.724;9.898;2023-10-09T06:27:13;2.70;;;1.20;;
40515;SDS011;26216;53.724;9.898;2023-10-09T06:29:49;2.45;;;1.27;;
40515;SDS011;26216;53.724;9.898;2023-10-09T06:32:15;1.95;;;1.20;;
40515;SDS011;26216;53.724;9.898;2023-10-09T06:34:58;2.50;;;0.98;;
40515;SDS011;26216;53.724;9.898;2023-10-09T06:37:50;4.38;;;1.77;;
40515;SDS011;26216;53.724;9.898;2023-10-09T06:43:13;2.47;;;1.38;;
40515;SDS011;26216;53.724;9.898;2023-10-09T06:45:45;7.15;;;1.50;;
40515;SDS011;26216;53.724;9.898;2023-10-09T06:48:11;2.17;;;1.17;;
40515;SDS011;26216;53.724;9.898;2023-10-09T06:50:57;2.88;;;1.42;;
40515;SDS011;26216;53.724;9.898;2023-10-09T06:53:29;2.67;;;1.50;;
40515;SDS011;26216;53.724;9.898;2023-10-09T06:59:01;2.63;;;1.30;;
40515;SDS011;26216;53.724;9.898;2023-10-09T07:01:47;2.95;;;1.33;;
40515;SDS011;26216;53.724;9.898;2023-10-09T07:04:32;2.17;;;1.27;;
40515;SDS011;26216;53.724;9.898;2023-10-09T07:06:58;3.45;;;1.35;;
40515;SDS011;26216;53.724;9.898;2023-10-09T07:09:27;3.53;;;1.75;;
40515;SDS011;26216;53.724;9.898;2023-10-09T07:12:08;3.88;;;1.33;;
40515;SDS011;26216;53.724;9.898;2023-10-09T07:14:38;2.75;;;1.35;;
40515;SDS011;26216;53.724;9.898;2023-10-09T07:17:05;2.63;;;1.30;;
40515;SDS011;26216;53.724;9.898;2023-10-09T07:19:50;2.15;;;1.40;;
40515;SDS011;26216;53.724;9.898;2023-10-09T07:22:20;2.20;;;1.20;;
40515;SDS011;26216;53.724;9.898;2023-10-09T07:27:22;2.95;;;1.60;;
40515;SDS011;26216;53.724;9.898;2023-10-09T07:30:07;2.67;;;1.20;;
40515;SDS011;26216;53.724;9.898;2023-10-09T07:33:05;3.13;;;1.50;;
40515;SDS011;26216;53.724;9.898;2023-10-09T07:35:35;2.60;;;1.50;;
40515;SDS011;26216;53.724;9.898;2023-10-09T07:38:19;2.58;;;1.40;;
40515;SDS011;26216;53.724;9.898;2023-10-09T07:40:47;2.20;;;1.20;;
40515;SDS011;26216;53.724;9.898;2023-10-09T07:43:33;2.53;;;1.52;;
40515;SDS011;26216;53.724;9.898;2023-10-09T07:46:26;1.90;;;1.10;;
40515;SDS011;26216;53.724;9.898;2023-10-09T07:49:02;2.65;;;1.77;;
40515;SDS011;26216;53.724;9.898;2023-10-09T07:51:35;2.53;;;1.50;;
40515;SDS011;26216;53.724;9.898;2023-10-09T07:54:02;2.25;;;1.13;;
40515;SDS011;26216;53.724;9.898;2023-10-09T07:56:42;1.88;;;1.17;;
40515;SDS011;26216;53.724;9.898;2023-10-09T07:59:11;2.13;;;1.25;;
40515;SDS011;26216;53.724;9.898;2023-10-09T08:01:42;2.72;;;1.50;;
40515;SDS011;26216;53.724;9.898;2023-10-09T08:04:20;2.67;;;1.60;;
40515;SDS011;26216;53.724;9.898;2023-10-09T08:07:10;2.00;;;1.40;;
40515;SDS011;26216;53.724;9.898;2023-10-09T08:09:53;3.85;;;1.40;;
40515;SDS011;26216;53.724;9.898;2023-10-09T08:12:41;2.42;;;1.50;;
40515;SDS011;26216;53.724;9.898;2023-10-09T08:15:23;2.72;;;1.42;;
40515;SDS011;26216;53.724;9.898;2023-10-09T08:18:19;1.77;;;1.40;;
40515;SDS011;26216;53.724;9.898;2023-10-09T08:20:54;1.90;;;1.40;;
40515;SDS011;26216;53.724;9.898;2023-10-09T08:23:23;2.47;;;1.60;;
40515;SDS011;26216;53.724;9.898;2023-10-09T08:26:04;1.92;;;1.58;;
40515;SDS011;26216;53.724;9.898;2023-10-09T08:28:43;2.55;;;1.60;;
40515;SDS011;26216;53.724;9.898;2023-10-09T08:31:14;2.60;;;1.63;;
40515;SDS011;26216;53.724;9.898;2023-10-09T08:33:47;2.65;;;1.67;;
40515;SDS011;26216;53.724;9.898;2023-10-09T08:36:23;2.33;;;1.90;;
40515;SDS011;26216;53.724;9.898;2023-10-09T08:39:04;1.70;;;1.23;;
40515;SDS011;26216;53.724;9.898;2023-10-09T08:41:42;2.00;;;1.57;;
40515;SDS011;26216;53.724;9.898;2023-10-09T08:44:09;2.15;;;1.80;;
40515;SDS011;26216;53.724;9.898;2023-10-09T08:46:40;3.13;;;2.20;;
40515;SDS011;26216;53.724;9.898;2023-10-09T08:49:07;3.10;;;2.20;;
40515;SDS011;26216;53.724;9.898;2023-10-09T08:51:35;2.42;;;1.98;;
40515;SDS011;26216;53.724;9.898;2023-10-09T08:54:03;2.85;;;1.80;;
40515;SDS011;26216;53.724;9.898;2023-10-09T08:56:30;2.60;;;1.90;;
40515;SDS011;26216;53.724;9.898;2023-10-09T08:58:59;2.65;;;2.03;;
40515;SDS011;26216;53.724;9.898;2023-10-09T09:01:27;2.35;;;1.90;;
40515;SDS011;26216;53.724;9.898;2023-10-09T09:03:57;2.60;;;2.00;;
40515;SDS011;26216;53.724;9.898;2023-10-09T09:06:25;2.92;;;2.40;;
40515;SDS011;26216;53.724;9.898;2023-10-09T09:08:51;2.42;;;1.88;;
40515;SDS011;26216;53.724;9.898;2023-10-09T09:11:24;2.20;;;1.90;;
40515;SDS011;26216;53.724;9.898;2023-10-09T09:16:28;2.70;;;2.13;;
40515;SDS011;26216;53.724;9.898;2023-10-09T09:18:58;2.78;;;1.88;;
40515;SDS011;26216;53.724;9.898;2023-10-09T09:21:28;2.40;;;1.90;;
40515;SDS011;26216;53.724;9.898;2023-10-09T09:23:58;2.45;;;1.90;;
40515;SDS011;26216;53.724;9.898;2023-10-09T09:26:36;2.00;;;1.75;;
40515;SDS011;26216;53.724;9.898;2023-10-09T09:29:06;2.38;;;1.70;;
40515;SDS011;26216;53.724;9.898;2023-10-09T09:31:33;2.47;;;1.60;;
40515;SDS011;26216;53.724;9.898;2023-10-09T09:34:07;2.95;;;1.80;;
40515;SDS011;26216;53.724;9.898;2023-10-09T09:36:55;2.80;;;2.05;;
40515;SDS011;26216;53.724;9.898;2023-10-09T09:39:23;1.98;;;1.65;;
40515;SDS011;26216;53.724;9.898;2023-10-09T09:41:54;1.98;;;1.70;;
40515;SDS011;26216;53.724;9.898;2023-10-09T09:44:22;1.98;;;1.50;;
40515;SDS011;26216;53.724;9.898;2023-10-09T09:46:56;1.95;;;1.63;;
40515;SDS011;26216;53.724;9.898;2023-10-09T09:49:25;2.20;;;1.70;;
40515;SDS011;26216;53.724;9.898;2023-10-09T09:52:03;2.30;;;1.83;;
40515;SDS011;26216;53.724;9.898;2023-10-09T09:54:35;2.08;;;1.77;;
40515;SDS011;26216;53.724;9.898;2023-10-09T09:57:03;1.70;;;1.30;;
40515;SDS011;26216;53.724;9.898;2023-10-09T09:59:39;2.13;;;1.50;;
40515;SDS011;26216;53.724;9.898;2023-10-09T10:02:18;1.48;;;1.27;;
40515;SDS011;26216;53.724;9.898;2023-10-09T10:04:51;1.85;;;1.50;;
40515;SDS011;26216;53.724;9.898;2023-10-09T10:07:21;1.58;;;1.40;;
40515;SDS011;26216;53.724;9.898;2023-10-09T10:09:50;1.73;;;1.33;;
40515;SDS011;26216;53.724;9.898;2023-10-09T10:15:11;1.45;;;1.20;;
40515;SDS011;26216;53.724;9.898;2023-10-09T10:20:24;1.13;;;1.00;;
40515;SDS011;26216;53.724;9.898;2023-10-09T10:22:51;1.27;;;1.00;;
40515;SDS011;26216;53.724;9.898;2023-10-09T10:25:37;0.98;;;0.88;;
40515;SDS011;26216;53.724;9.898;2023-10-09T10:28:20;1.00;;;0.90;;
40515;SDS011;26216;53.724;9.898;2023-10-09T10:31:04;0.80;;;0.80;;
40515;SDS011;26216;53.724;9.898;2023-10-09T10:36:25;0.70;;;0.70;;
40515;SDS011;26216;53.724;9.898;2023-10-09T10:39:01;1.02;;;0.90;;
40515;SDS011;26216;53.724;9.898;2023-10-09T10:41:33;1.35;;;1.08;;
40515;SDS011;26216;53.724;9.898;2023-10-09T10:44:04;2.08;;;0.98;;
40515;SDS011;26216;53.724;9.898;2023-10-09T10:46:59;1.05;;;0.95;;
40515;SDS011;26216;53.724;9.898;2023-10-09T10:49:26;1.58;;;1.05;;
40515;SDS011;26216;53.724;9.898;2023-10-09T10:52:03;1.42;;;1.08;;
40515;SDS011;26216;53.724;9.898;2023-10-09T10:54:42;1.10;;;0.93;;
40515;SDS011;26216;53.724;9.898;2023-10-09T10:57:15;0.98;;;0.88;;
40515;SDS011;26216;53.724;9.898;2023-10-09T10:59:45;1.00;;;0.88;;
40515;SDS011;26216;53.724;9.898;2023-10-09T11:02:12;1.13;;;1.02;;
40515;SDS011;26216;53.724;9.898;2023-10-09T11:04:37;1.40;;;0.90;;
40515;SDS011;26216;53.724;9.898;2023-10-09T11:07:07;1.15;;;1.02;;
40515;SDS011;26216;53.724;9.898;2023-10-09T11:09:53;1.67;;;1.13;;
40515;SDS011;26216;53.724;9.898;2023-10-09T11:15:10;1.20;;;0.90;;
40515;SDS011;26216;53.724;9.898;2023-10-09T11:18:02;1.00;;;0.90;;
40515;SDS011;26216;53.724;9.898;2023-10-09T11:20:43;0.85;;;0.85;;
40515;SDS011;26216;53.724;9.898;2023-10-09T11:23:27;0.90;;;0.85;;
40515;SDS011;26216;53.724;9.898;2023-10-09T11:26:05;1.00;;;0.90;;
40515;SDS011;26216;53.724;9.898;2023-10-09T11:31:42;0.70;;;0.68;;
40515;SDS011;26216;53.724;9.898;2023-10-09T11:34:26;0.68;;;0.68;;
40515;SDS011;26216;53.724;9.898;2023-10-09T11:37:03;1.13;;;0.80;;
40515;SDS011;26216;53.724;9.898;2023-10-09T11:39:40;0.98;;;0.80;;
40515;SDS011;26216;53.724;9.898;2023-10-09T11:42:19;1.35;;;0.70;;
40515;SDS011;26216;53.724;9.898;2023-10-09T11:45:05;1.05;;;0.80;;
40515;SDS011;26216;53.724;9.898;2023-10-09T11:47:48;2.00;;;0.90;;
40515;SDS011;26216;53.724;9.898;2023-10-09T11:53:39;1.10;;;0.75;;
40515;SDS011;26216;53.724;9.898;2023-10-09T11:56:22;0.80;;;0.60;;
40515;SDS011;26216;53.724;9.898;2023-10-09T11:58:52;1.20;;;0.90;;
40515;SDS011;26216;53.724;9.898;2023-10-09T12:01:18;0.95;;;0.85;;
40515;SDS011;26216;53.724;9.898;2023-10-09T12:03:49;1.48;;;1.13;;
40515;SDS011;26216;53.724;9.898;2023-10-09T12:06:16;0.70;;;0.70;;
40515;SDS011;26216;53.724;9.898;2023-10-09T12:11:14;0.90;;;0.90;;
40515;SDS011;26216;53.724;9.898;2023-10-09T12:13:48;1.20;;;0.90;;
40515;SDS011;26216;53.724;9.898;2023-10-09T12:16:14;1.70;;;1.10;;
40515;SDS011;26216;53.724;9.898;2023-10-09T12:18:41;1.17;;;1.00;;
40515;SDS011;26216;53.724;9.898;2023-10-09T12:21:08;0.80;;;0.70;;
40515;SDS011;26216;53.724;9.898;2023-10-09T12:23:40;1.20;;;0.98;;
40515;SDS011;26216;53.724;9.898;2023-10-09T12:26:09;0.82;;;0.82;;
40515;SDS011;26216;53.724;9.898;2023-10-09T12:28:42;1.23;;;0.90;;
40515;SDS011;26216;53.724;9.898;2023-10-09T12:31:15;1.73;;;1.27;;
40515;SDS011;26216;53.724;9.898;2023-10-09T12:33:45;1.05;;;0.95;;
40515;SDS011;26216;53.724;9.898;2023-10-09T12:36:12;1.02;;;0.93;;
40515;SDS011;26216;53.724;9.898;2023-10-09T12:38:45;1.48;;;1.10;;
40515;SDS011;26216;53.724;9.898;2023-10-09T12:41:16;1.40;;;1.15;;
40515;SDS011;26216;53.724;9.898;2023-10-09T12:43:45;1.02;;;0.88;;
40515;SDS011;26216;53.724;9.898;2023-10-09T12:46:12;1.52;;;1.15;;
40515;SDS011;26216;53.724;9.898;2023-10-09T12:48:42;1.45;;;1.00;;
40515;SDS011;26216;53.724;9.898;2023-10-09T12:51:12;1.45;;;1.20;;
40515;SDS011;26216;53.724;9.898;2023-10-09T12:53:42;1.20;;;1.05;;
40515;SDS011;26216;53.724;9.898;2023-10-09T12:56:08;1.20;;;1.00;;
40515;SDS011;26216;53.724;9.898;2023-10-09T12:58:38;1.23;;;1.10;;
40515;SDS011;26216;53.724;9.898;2023-10-09T13:01:04;1.20;;;1.10;;
40515;SDS011;26216;53.724;9.898;2023-10-09T13:03:39;2.58;;;1.27;;
40515;SDS011;26216;53.724;9.898;2023-10-09T13:06:05;0.88;;;0.88;;
40515;SDS011;26216;53.724;9.898;2023-10-09T13:08:35;1.30;;;1.00;;
40515;SDS011;26216;53.724;9.898;2023-10-09T13:11:05;1.15;;;1.05;;
40515;SDS011;26216;53.724;9.898;2023-10-09T13:13:36;1.67;;;1.20;;
40515;SDS011;26216;53.724;9.898;2023-10-09T13:16:15;1.15;;;1.05;;
40515;SDS011;26216;53.724;9.898;2023-10-09T13:18:56;1.10;;;1.00;;
40515;SDS011;26216;53.724;9.898;2023-10-09T13:23:57;1.50;;;1.23;;
40515;SDS011;26216;53.724;9.898;2023-10-09T13:26:25;1.98;;;1.45;;
40515;SDS011;26216;53.724;9.898;2023-10-09T13:28:55;1.58;;;1.13;;
40515;SDS011;26216;53.724;9.898;2023-10-09T13:31:27;1.77;;;1.05;;
40515;SDS011;26216;53.724;9.898;2023-10-09T13:33:57;1.75;;;1.05;;
40515;SDS011;26216;53.724;9.898;2023-10-09T13:36:27;1.20;;;1.10;;
40515;SDS011;26216;53.724;9.898;2023-10-09T13:39:00;2.00;;;1.25;;
40515;SDS011;26216;53.724;9.898;2023-10-09T13:41:47;1.50;;;1.40;;
40515;SDS011;26216;53.724;9.898;2023-10-09T13:44:15;1.20;;;1.10;;
40515;SDS011;26216;53.724;9.898;2023-10-09T13:46:41;1.60;;;1.27;;
40515;SDS011;26216;53.724;9.898;2023-10-09T13:49:08;1.40;;;1.10;;
40515;SDS011;26216;53.724;9.898;2023-10-09T13:51:38;1.50;;;1.00;;
40515;SDS011;26216;53.724;9.898;2023-10-09T13:54:10;1.33;;;1.00;;
40515;SDS011;26216;53.724;9.898;2023-10-09T13:56:43;2.45;;;1.52;;
40515;SDS011;26216;53.724;9.898;2023-10-09T13:59:09;1.50;;;1.30;;
40515;SDS011;26216;53.724;9.898;2023-10-09T14:01:36;1.92;;;1.52;;
40515;SDS011;26216;53.724;9.898;2023-10-09T14:04:04;1.30;;;1.20;;
40515;SDS011;26216;53.724;9.898;2023-10-09T14:06:34;1.63;;;1.38;;
40515;SDS011;26216;53.724;9.898;2023-10-09T14:09:03;1.58;;;1.33;;
40515;SDS011;26216;53.724;9.898;2023-10-09T14:11:34;1.50;;;1.30;;
40515;SDS011;26216;53.724;9.898;2023-10-09T14:14:06;1.38;;;1.27;;
40515;SDS011;26216;53.724;9.898;2023-10-09T14:16:37;2.17;;;1.25;;
40515;SDS011;26216;53.724;9.898;2023-10-09T14:19:08;2.00;;;1.40;;
40515;SDS011;26216;53.724;9.898;2023-10-09T14:21:38;1.63;;;1.38;;
40515;SDS011;26216;53.724;9.898;2023-10-09T14:24:05;1.65;;;1.30;;
40515;SDS011;26216;53.724;9.898;2023-10-09T14:26:41;2.03;;;1.50;;
40515;SDS011;26216;53.724;9.898;2023-10-09T14:29:10;1.63;;;1.40;;
40515;SDS011;26216;53.724;9.898;2023-10-09T14:31:43;0.95;;;0.93;;
40515;SDS011;26216;53.724;9.898;2023-10-09T14:36:40;1.38;;;1.10;;
40515;SDS011;26216;53.724;9.898;2023-10-09T14:39:12;1.77;;;1.55;;
40515;SDS011;26216;53.724;9.898;2023-10-09T14:41:44;2.03;;;1.60;;
40515;SDS011;26216;53.724;9.898;2023-10-09T14:44:10;1.65;;;1.23;;
40515;SDS011;26216;53.724;9.898;2023-10-09T14:46:41;2.33;;;1.50;;
40515;SDS011;26216;53.724;9.898;2023-10-09T14:49:08;1.38;;;1.25;;
40515;SDS011;26216;53.724;9.898;2023-10-09T14:51:39;1.55;;;1.20;;
40515;SDS011;26216;53.724;9.898;2023-10-09T14:54:06;1.50;;;1.30;;
40515;SDS011;26216;53.724;9.898;2023-10-09T14:56:33;1.52;;;1.30;;
40515;SDS011;26216;53.724;9.898;2023-10-09T14:59:02;1.77;;;1.50;;
40515;SDS011;26216;53.724;9.898;2023-10-09T15:01:28;1.80;;;1.60;;
40515;SDS011;26216;53.724;9.898;2023-10-09T15:03:57;1.75;;;1.50;;
40515;SDS011;26216;53.724;9.898;2023-10-09T15:06:25;1.50;;;1.40;;
40515;SDS011;26216;53.724;9.898;2023-10-09T15:08:59;1.75;;;1.63;;
40515;SDS011;26216;53.724;9.898;2023-10-09T15:11:33;3.08;;;1.70;;
40515;SDS011;26216;53.724;9.898;2023-10-09T15:14:00;1.90;;;1.70;;
40515;SDS011;26216;53.724;9.898;2023-10-09T15:16:30;1.60;;;1.38;;
40515;SDS011;26216;53.724;9.898;2023-10-09T15:18:57;2.08;;;1.73;;
40515;SDS011;26216;53.724;9.898;2023-10-09T15:21:23;2.05;;;1.77;;
40515;SDS011;26216;53.724;9.898;2023-10-09T15:23:58;2.15;;;1.92;;
40515;SDS011;26216;53.724;9.898;2023-10-09T15:26:25;2.10;;;1.90;;
40515;SDS011;26216;53.724;9.898;2023-10-09T15:28:59;2.00;;;1.80;;
40515;SDS011;26216;53.724;9.898;2023-10-09T15:31:29;2.17;;;1.98;;
40515;SDS011;26216;53.724;9.898;2023-10-09T15:33:56;2.40;;;1.90;;
40515;SDS011;26216;53.724;9.898;2023-10-09T15:36:22;2.15;;;1.95;;
40515;SDS011;26216;53.724;9.898;2023-10-09T15:38:50;2.40;;;2.20;;
40515;SDS011;26216;53.724;9.898;2023-10-09T15:41:17;1.80;;;1.67;;
40515;SDS011;26216;53.724;9.898;2023-10-09T15:43:46;1.98;;;1.77;;
40515;SDS011;26216;53.724;9.898;2023-10-09T15:46:13;2.30;;;2.10;;
40515;SDS011;26216;53.724;9.898;2023-10-09T15:48:42;1.70;;;1.58;;
40515;SDS011;26216;53.724;9.898;2023-10-09T15:51:10;1.98;;;1.77;;
40515;SDS011;26216;53.724;9.898;2023-10-09T15:53:40;1.90;;;1.70;;
40515;SDS011;26216;53.724;9.898;2023-10-09T15:56:07;1.60;;;1.45;;
40515;SDS011;26216;53.724;9.898;2023-10-09T15:58:33;1.88;;;1.65;;
40515;SDS011;26216;53.724;9.898;2023-10-09T16:00:59;2.20;;;1.70;;